Time;durP1;ratioP1;P1;durP2;ratioP2;P2;SDS_P1;SDS_P2;PMS_P1;PMS_P2;Temp;Humidity;BMP_temperature;BMP_pressure;BME280_temperature;BME280_humidity;BME280_pressure;Samples;Min_cycle;Max_cycle;Signal;HPM_P1;HPM_P2
2024/01/06 00:01:49;;;;;;;141.32;32.50;;;;;;;;;;6271118;28;20428;-62
2024/01/06 00:04:50;;;;;;;149.50;33.25;;;;;;;;;;6272283;28;20060;-62
2024/01/06 00:07:51;;;;;;;156.30;33.75;;;;;;;;;;6275329;28;20052;-61
2024/01/06 00:10:51;;;;;;;156.73;35.20;;;;;;;;;;6268514;28;20052;-61
2024/01/06 00:13:52;;;;;;;155.48;35.58;;;;;;;;;;6269612;28;20041;-61
2024/01/06 00:16:54;;;;;;;123.45;33.13;;;;;;;;;;6269692;28;20048;-62
2024/01/06 00:19:55;;;;;;;198.60;35.97;;;;;;;;;;6270354;28;20403;-60
2024/01/06 00:22:58;;;;;;;137.13;35.17;;;;;;;;;;6270427;28;20080;-60
2024/01/06 00:25:59;;;;;;;187.27;34.13;;;;;;;;;;6275174;28;20063;-61
2024/01/06 00:29:00;;;;;;;129.52;33.33;;;;;;;;;;6264445;28;20865;-61
2024/01/06 00:32:01;;;;;;;167.90;35.88;;;;;;;;;;6266717;28;20510;-61
2024/01/06 00:35:02;;;;;;;179.30;35.13;;;;;;;;;;6272058;28;20052;-61
2024/01/06 00:38:03;;;;;;;121.53;31.80;;;;;;;;;;6266789;28;20561;-60
2024/01/06 00:41:04;;;;;;;115.90;31.45;;;;;;;;;;6269357;28;20082;-61
2024/01/06 00:44:04;;;;;;;134.80;31.60;;;;;;;;;;6265950;28;20052;-61
2024/01/06 00:47:05;;;;;;;150.70;31.55;;;;;;;;;;6265008;28;20048;-61
2024/01/06 00:50:06;;;;;;;138.75;35.25;;;;;;;;;;6268010;28;20067;-60
2024/01/06 00:53:07;;;;;;;123.00;32.08;;;;;;;;;;6268525;28;21141;-60
2024/01/06 00:56:08;;;;;;;125.63;33.35;;;;;;;;;;6267283;28;20067;-59
2024/01/06 00:59:09;;;;;;;112.85;32.95;;;;;;;;;;6268018;28;20083;-60
2024/01/06 01:02:10;;;;;;;135.85;33.28;;;;;;;;;;6271722;28;20064;-61
2024/01/06 01:05:10;;;;;;;118.45;32.58;;;;;;;;;;6268026;28;20056;-61
2024/01/06 01:08:11;;;;;;;115.32;31.92;;;;;;;;;;6261119;28;20052;-60
2024/01/06 01:11:12;;;;;;;113.82;32.72;;;;;;;;;;6264555;28;20059;-61
2024/01/06 01:14:13;;;;;;;115.20;33.63;;;;;;;;;;6266299;28;20053;-61
2024/01/06 01:17:14;;;;;;;127.88;34.45;;;;;;;;;;6263544;28;20075;-62
2024/01/06 01:20:15;;;;;;;110.15;33.45;;;;;;;;;;6268401;28;20055;-60
2024/01/06 01:23:16;;;;;;;144.50;36.67;;;;;;;;;;6268608;28;20053;-60
2024/01/06 01:26:16;;;;;;;116.55;35.65;;;;;;;;;;6270821;28;20052;-61
2024/01/06 01:29:19;;;;;;;104.80;32.75;;;;;;;;;;6266262;28;20051;-60
2024/01/06 01:32:20;;;;;;;129.73;34.55;;;;;;;;;;6271935;28;20415;-61
2024/01/06 01:35:21;;;;;;;112.00;33.67;;;;;;;;;;6270194;28;20132;-61
2024/01/06 01:38:22;;;;;;;117.45;33.25;;;;;;;;;;6261753;28;20060;-64
2024/01/06 01:41:22;;;;;;;126.20;37.28;;;;;;;;;;6266734;28;20056;-61
2024/01/06 01:44:23;;;;;;;140.75;40.90;;;;;;;;;;6269041;28;20500;-61
2024/01/06 01:47:24;;;;;;;134.95;37.88;;;;;;;;;;6263872;28;20070;-61
2024/01/06 01:50:27;;;;;;;117.03;36.42;;;;;;;;;;6268742;28;20041;-61
2024/01/06 01:53:28;;;;;;;127.32;39.63;;;;;;;;;;6272999;28;20520;-60
2024/01/06 01:56:34;;;;;;;130.07;37.70;;;;;;;;;;6283925;28;20131;-60
2024/01/06 01:59:34;;;;;;;127.85;38.53;;;;;;;;;;6282417;28;20048;-62
2024/01/06 02:02:35;;;;;;;112.07;36.67;;;;;;;;;;6284516;28;20040;-60
2024/01/06 02:05:36;;;;;;;117.65;36.00;;;;;;;;;;6281667;28;20480;-61
2024/01/06 02:08:37;;;;;;;124.15;34.58;;;;;;;;;;6280877;28;20047;-61
2024/01/06 02:11:38;;;;;;;113.68;35.33;;;;;;;;;;6287895;28;20493;-61
2024/01/06 02:14:39;;;;;;;117.05;34.13;;;;;;;;;;6286472;28;20051;-60
2024/01/06 02:17:40;;;;;;;120.20;35.60;;;;;;;;;;6288111;28;20041;-60
2024/01/06 02:20:46;;;;;;;119.80;37.95;;;;;;;;;;6289719;28;20064;-60
2024/01/06 02:23:47;;;;;;;117.40;35.88;;;;;;;;;;6289627;28;20055;-60
2024/01/06 02:26:48;;;;;;;112.73;34.97;;;;;;;;;;6287671;28;20388;-60
2024/01/06 02:29:49;;;;;;;113.25;35.55;;;;;;;;;;6288000;28;20313;-60
2024/01/06 02:32:50;;;;;;;116.97;35.40;;;;;;;;;;6284130;28;20174;-60
2024/01/06 02:35:51;;;;;;;123.15;36.40;;;;;;;;;;6288184;28;20052;-60
2024/01/06 02:38:51;;;;;;;109.68;34.00;;;;;;;;;;6287409;28;20052;-61
2024/01/06 02:41:52;;;;;;;118.55;34.83;;;;;;;;;;6289655;28;20110;-60
2024/01/06 02:44:53;;;;;;;122.43;35.45;;;;;;;;;;6287451;28;20056;-60
2024/01/06 02:47:54;;;;;;;118.43;34.75;;;;;;;;;;6285035;28;20419;-60
2024/01/06 02:50:55;;;;;;;135.23;38.17;;;;;;;;;;6291319;28;20139;-60
2024/01/06 02:53:55;;;;;;;134.68;39.80;;;;;;;;;;6289094;28;20494;-61
2024/01/06 02:56:56;;;;;;;133.27;40.60;;;;;;;;;;6288031;28;20551;-59
2024/01/06 02:59:57;;;;;;;128.68;39.28;;;;;;;;;;6288255;28;20041;-60
2024/01/06 03:02:58;;;;;;;120.63;36.70;;;;;;;;;;6289187;28;20106;-60
2024/01/06 03:05:59;;;;;;;120.18;36.58;;;;;;;;;;6289026;28;20692;-60
2024/01/06 03:09:00;;;;;;;119.05;38.42;;;;;;;;;;6287736;28;20074;-61
2024/01/06 03:12:01;;;;;;;121.07;37.30;;;;;;;;;;6289401;28;20049;-61
2024/01/06 03:15:02;;;;;;;122.10;37.30;;;;;;;;;;6288337;28;20056;-60
2024/01/06 03:18:03;;;;;;;119.30;35.22;;;;;;;;;;6287565;28;20052;-60
2024/01/06 03:21:04;;;;;;;116.93;33.97;;;;;;;;;;6289796;28;20045;-60
2024/01/06 03:24:07;;;;;;;114.13;34.15;;;;;;;;;;6287206;28;20041;-60
2024/01/06 03:27:08;;;;;;;118.22;36.28;;;;;;;;;;6287535;28;20427;-61
2024/01/06 03:30:10;;;;;;;120.60;35.20;;;;;;;;;;6289306;28;20060;-60
2024/01/06 03:33:12;;;;;;;115.60;36.53;;;;;;;;;;6288666;28;20495;-60
2024/01/06 03:36:13;;;;;;;122.68;37.08;;;;;;;;;;6287439;28;20940;-60
2024/01/06 03:39:14;;;;;;;107.35;34.67;;;;;;;;;;6291850;28;20105;-60
2024/01/06 03:42:14;;;;;;;111.38;33.33;;;;;;;;;;6292746;28;20446;-60
2024/01/06 03:45:15;;;;;;;119.03;35.20;;;;;;;;;;6293658;28;20052;-62
2024/01/06 03:48:16;;;;;;;119.68;36.75;;;;;;;;;;6291244;28;20122;-60
2024/01/06 03:51:17;;;;;;;128.48;38.35;;;;;;;;;;6292700;28;20052;-61
2024/01/06 03:54:17;;;;;;;123.05;37.03;;;;;;;;;;6290802;28;20549;-61
2024/01/06 03:57:18;;;;;;;133.93;38.42;;;;;;;;;;6291165;28;20045;-59
2024/01/06 04:00:19;;;;;;;130.48;39.85;;;;;;;;;;6290921;28;20056;-61
2024/01/06 04:03:20;;;;;;;136.18;39.30;;;;;;;;;;6292557;28;20055;-60
2024/01/06 04:06:20;;;;;;;125.45;37.20;;;;;;;;;;6293850;28;20049;-60
2024/01/06 04:09:21;;;;;;;121.32;35.85;;;;;;;;;;6288902;28;20052;-60
2024/01/06 04:12:22;;;;;;;143.70;40.65;;;;;;;;;;6293073;28;20052;-60
2024/01/06 04:15:23;;;;;;;134.13;41.83;;;;;;;;;;6291497;28;20048;-61
2024/01/06 04:18:24;;;;;;;139.02;42.45;;;;;;;;;;6289424;28;20045;-60
2024/01/06 04:21:24;;;;;;;140.68;41.53;;;;;;;;;;6292751;28;20135;-60
2024/01/06 04:24:25;;;;;;;127.47;39.97;;;;;;;;;;6290523;28;20494;-60
2024/01/06 04:27:26;;;;;;;121.20;37.70;;;;;;;;;;6289620;28;20052;-60
2024/01/06 04:30:27;;;;;;;153.75;43.05;;;;;;;;;;6292902;28;20056;-61
2024/01/06 04:33:27;;;;;;;131.80;40.80;;;;;;;;;;6291195;28;20059;-60
2024/01/06 04:36:28;;;;;;;141.60;40.17;;;;;;;;;;6288266;28;20057;-60
2024/01/06 04:39:29;;;;;;;151.20;43.47;;;;;;;;;;6289946;28;20079;-60
2024/01/06 04:42:30;;;;;;;136.15;44.53;;;;;;;;;;6290955;28;20510;-60
2024/01/06 04:45:31;;;;;;;148.50;44.78;;;;;;;;;;6292076;28;20052;-60
2024/01/06 04:48:31;;;;;;;149.70;45.97;;;;;;;;;;6288780;28;20053;-60
2024/01/06 04:51:32;;;;;;;143.88;43.83;;;;;;;;;;6289499;28;20105;-60
2024/01/06 04:54:33;;;;;;;142.45;43.10;;;;;;;;;;6290725;28;20984;-61
2024/01/06 04:57:34;;;;;;;135.82;44.28;;;;;;;;;;6290253;28;20498;-60
2024/01/06 05:00:36;;;;;;;155.40;48.17;;;;;;;;;;6291403;28;20049;-60
2024/01/06 05:03:36;;;;;;;152.50;47.65;;;;;;;;;;6291384;28;20090;-60
2024/01/06 05:06:37;;;;;;;149.70;48.33;;;;;;;;;;6290408;28;20439;-60
2024/01/06 05:09:39;;;;;;;161.43;51.10;;;;;;;;;;6290304;28;20058;-60
2024/01/06 05:12:40;;;;;;;183.80;54.70;;;;;;;;;;6290122;28;20040;-60
2024/01/06 05:15:41;;;;;;;185.80;60.28;;;;;;;;;;6290894;28;20106;-60
2024/01/06 05:18:42;;;;;;;187.30;59.50;;;;;;;;;;6288989;28;20395;-61
2024/01/06 05:21:42;;;;;;;179.95;57.80;;;;;;;;;;6290559;28;20493;-60
2024/01/06 05:24:43;;;;;;;168.48;54.80;;;;;;;;;;6289225;28;20095;-60
2024/01/06 05:27:44;;;;;;;189.85;60.72;;;;;;;;;;6286685;28;20139;-60
2024/01/06 05:30:45;;;;;;;189.70;62.38;;;;;;;;;;6290362;28;20047;-61
2024/01/06 05:33:45;;;;;;;212.85;65.30;;;;;;;;;;6289087;28;20082;-59
2024/01/06 05:36:46;;;;;;;233.10;67.32;;;;;;;;;;6290042;28;20045;-60
2024/01/06 05:39:47;;;;;;;214.25;63.78;;;;;;;;;;6289305;28;20045;-60
2024/01/06 05:42:47;;;;;;;214.50;63.83;;;;;;;;;;6290421;28;20502;-60
2024/01/06 05:45:48;;;;;;;204.52;61.50;;;;;;;;;;6288700;28;20048;-59
2024/01/06 05:48:49;;;;;;;162.65;50.33;;;;;;;;;;6286944;28;20407;-60
2024/01/06 05:51:50;;;;;;;155.73;47.70;;;;;;;;;;6288734;28;20045;-60
2024/01/06 05:54:50;;;;;;;181.27;52.33;;;;;;;;;;6290050;28;20051;-60
2024/01/06 05:57:51;;;;;;;169.35;52.35;;;;;;;;;;6287434;28;20551;-61
2024/01/06 06:00:52;;;;;;;160.82;50.40;;;;;;;;;;6287297;28;20098;-61
2024/01/06 06:03:53;;;;;;;163.82;52.60;;;;;;;;;;6288498;28;20036;-60
2024/01/06 06:06:54;;;;;;;162.98;53.00;;;;;;;;;;6289288;28;20200;-60
2024/01/06 06:09:55;;;;;;;170.45;52.83;;;;;;;;;;6288978;28;20048;-60
2024/01/06 06:12:55;;;;;;;181.02;58.05;;;;;;;;;;6288347;28;20575;-60
2024/01/06 06:15:57;;;;;;;175.45;56.13;;;;;;;;;;6289494;28;20048;-60
2024/01/06 06:18:58;;;;;;;186.70;58.55;;;;;;;;;;6287933;28;20411;-61
2024/01/06 06:21:59;;;;;;;191.05;55.38;;;;;;;;;;6288234;28;20052;-61
2024/01/06 06:25:00;;;;;;;179.02;57.15;;;;;;;;;;6289545;28;20071;-61
2024/01/06 06:28:01;;;;;;;188.65;59.75;;;;;;;;;;6285734;28;20098;-60
2024/01/06 06:31:02;;;;;;;192.88;58.35;;;;;;;;;;6287857;28;20372;-61
2024/01/06 06:34:03;;;;;;;187.82;62.05;;;;;;;;;;6287788;28;20952;-60
2024/01/06 06:37:05;;;;;;;196.07;59.78;;;;;;;;;;6289444;28;20143;-59
2024/01/06 06:40:06;;;;;;;190.48;60.28;;;;;;;;;;6289534;28;20533;-60
2024/01/06 06:43:08;;;;;;;198.83;63.07;;;;;;;;;;6291031;28;20053;-60
2024/01/06 06:46:09;;;;;;;190.48;58.88;;;;;;;;;;6290525;28;20545;-60
2024/01/06 06:49:10;;;;;;;204.82;62.75;;;;;;;;;;6288697;28;20101;-60
2024/01/06 06:52:12;;;;;;;209.98;62.75;;;;;;;;;;6290131;28;20048;-60
2024/01/06 06:55:13;;;;;;;;;;;;;;;;;;6290879;28;20044;-61
2024/01/06 06:58:13;;;;;;;215.23;66.53;;;;;;;;;;6288833;28;19927;-60
2024/01/06 07:01:15;;;;;;;207.95;63.10;;;;;;;;;;6289883;28;20045;-60
2024/01/06 07:04:16;;;;;;;194.97;63.47;;;;;;;;;;6290345;28;20797;-61
2024/01/06 07:07:17;;;;;;;198.57;64.00;;;;;;;;;;6288955;28;20063;-60
2024/01/06 07:10:18;;;;;;;208.02;64.35;;;;;;;;;;6289447;28;20052;-60
2024/01/06 07:13:18;;;;;;;220.57;69.10;;;;;;;;;;6293939;28;20053;-61
2024/01/06 07:16:19;;;;;;;213.50;67.88;;;;;;;;;;6294184;28;20063;-60
2024/01/06 07:19:20;;;;;;;222.20;68.68;;;;;;;;;;6292294;28;20180;-60
2024/01/06 07:22:21;;;;;;;216.30;73.45;;;;;;;;;;6295367;28;20055;-60
2024/01/06 07:25:22;;;;;;;208.05;72.18;;;;;;;;;;6294777;28;20048;-60
2024/01/06 07:28:22;;;;;;;216.65;72.57;;;;;;;;;;6293291;28;20867;-61
2024/01/06 07:31:23;;;;;;;203.70;65.85;;;;;;;;;;6295131;28;20162;-61
2024/01/06 07:34:25;;;;;;;208.63;65.90;;;;;;;;;;6294593;28;20502;-61
2024/01/06 07:37:26;;;;;;;218.15;67.95;;;;;;;;;;6293143;28;20060;-61
2024/01/06 07:40:26;;;;;;;214.65;68.95;;;;;;;;;;6292935;28;20048;-61
2024/01/06 07:43:27;;;;;;;207.90;62.97;;;;;;;;;;6292717;28;20076;-62
2024/01/06 07:46:28;;;;;;;211.07;63.70;;;;;;;;;;6293694;28;20048;-63
2024/01/06 07:49:29;;;;;;;207.80;63.85;;;;;;;;;;6293069;28;20086;-62
2024/01/06 07:52:30;;;;;;;203.13;60.45;;;;;;;;;;6294059;28;20479;-60
2024/01/06 07:55:31;;;;;;;198.47;62.40;;;;;;;;;;6293683;28;20055;-60
2024/01/06 07:58:32;;;;;;;203.32;66.80;;;;;;;;;;6292681;28;20040;-60
2024/01/06 08:01:33;;;;;;;206.17;65.57;;;;;;;;;;6293770;28;20094;-61
2024/01/06 08:04:34;;;;;;;193.57;61.65;;;;;;;;;;6294486;28;20396;-61
2024/01/06 08:07:35;;;;;;;198.55;60.75;;;;;;;;;;6292545;28;20411;-60
2024/01/06 08:10:36;;;;;;;201.27;62.65;;;;;;;;;;6292486;28;20051;-61
2024/01/06 08:13:36;;;;;;;199.18;60.30;;;;;;;;;;6293555;28;20131;-61
2024/01/06 08:16:37;;;;;;;200.50;63.55;;;;;;;;;;6293029;28;20056;-60
2024/01/06 08:19:38;;;;;;;199.20;62.10;;;;;;;;;;6292356;28;20052;-61
2024/01/06 08:22:39;;;;;;;197.25;59.17;;;;;;;;;;6292576;28;20082;-61
2024/01/06 08:25:40;;;;;;;189.93;59.03;;;;;;;;;;6291720;28;20074;-60
2024/01/06 08:28:40;;;;;;;188.82;60.47;;;;;;;;;;6288530;28;20045;-61
2024/01/06 08:31:41;;;;;;;182.55;58.63;;;;;;;;;;6292120;28;20109;-61
2024/01/06 08:34:42;;;;;;;203.10;60.08;;;;;;;;;;6289903;28;20049;-61
2024/01/06 08:37:44;;;;;;;203.13;62.28;;;;;;;;;;6284692;28;20557;-60
2024/01/06 08:40:47;;;;;;;184.57;56.75;;;;;;;;;;6285624;28;20139;-60
2024/01/06 08:43:48;;;;;;;195.73;62.97;;;;;;;;;;6285380;28;20466;-61
2024/01/06 08:46:50;;;;;;;225.82;68.40;;;;;;;;;;6286129;28;20052;-61
2024/01/06 08:49:50;;;;;;;236.27;70.95;;;;;;;;;;6289703;28;20045;-61
2024/01/06 08:52:51;;;;;;;205.48;69.07;;;;;;;;;;6291635;28;20056;-60
2024/01/06 08:55:52;;;;;;;205.40;66.35;;;;;;;;;;6290110;28;21241;-61
2024/01/06 08:58:53;;;;;;;204.80;65.03;;;;;;;;;;6288091;28;20052;-60
2024/01/06 09:01:53;;;;;;;224.18;69.68;;;;;;;;;;6293271;28;20051;-61
2024/01/06 09:04:54;;;;;;;190.07;61.83;;;;;;;;;;6289645;28;20060;-62
2024/01/06 09:07:55;;;;;;;214.25;64.55;;;;;;;;;;6287992;28;20044;-61
2024/01/06 09:10:57;;;;;;;205.77;67.57;;;;;;;;;;6288531;28;20087;-62
2024/01/06 09:13:58;;;;;;;209.43;65.75;;;;;;;;;;6290710;28;20052;-62
2024/01/06 09:16:58;;;;;;;209.93;64.30;;;;;;;;;;6289936;28;20048;-62
2024/01/06 09:19:59;;;;;;;214.38;69.85;;;;;;;;;;6289748;28;20044;-62
2024/01/06 09:23:00;;;;;;;224.07;69.57;;;;;;;;;;6289848;28;20067;-62
2024/01/06 09:26:02;;;;;;;207.45;67.68;;;;;;;;;;6290178;28;20062;-62
2024/01/06 09:29:03;;;;;;;224.93;76.22;;;;;;;;;;6289177;28;20059;-61
2024/01/06 09:32:04;;;;;;;247.63;85.57;;;;;;;;;;6290320;28;20052;-62
2024/01/06 09:35:05;;;;;;;243.48;80.35;;;;;;;;;;6288502;28;20316;-62
2024/01/06 09:38:07;;;;;;;234.00;73.55;;;;;;;;;;6288587;28;20052;-62
2024/01/06 09:41:07;;;;;;;240.77;77.03;;;;;;;;;;6289749;28;20044;-62
2024/01/06 09:44:08;;;;;;;234.00;76.38;;;;;;;;;;6290071;28;20417;-62
2024/01/06 09:47:12;;;;;;;216.10;75.15;;;;;;;;;;6287755;28;20785;-62
2024/01/06 09:50:14;;;;;;;222.45;76.13;;;;;;;;;;6288737;28;20471;-62
2024/01/06 09:53:15;;;;;;;229.35;73.65;;;;;;;;;;6290131;28;20052;-62
2024/01/06 09:56:17;;;;;;;206.50;68.57;;;;;;;;;;6289560;28;20045;-61
2024/01/06 09:59:19;;;;;;;226.00;72.07;;;;;;;;;;6287618;28;20048;-62
2024/01/06 10:02:22;;;;;;;240.05;72.68;;;;;;;;;;6289091;28;20048;-62
2024/01/06 10:05:23;;;;;;;211.38;63.63;;;;;;;;;;6289096;28;20484;-62
2024/01/06 10:08:26;;;;;;;195.68;59.78;;;;;;;;;;6286717;28;20053;-62
2024/01/06 10:11:26;;;;;;;196.13;62.28;;;;;;;;;;6283824;28;20050;-62
2024/01/06 10:14:27;;;;;;;204.68;63.47;;;;;;;;;;6289072;28;20052;-62
2024/01/06 10:17:28;;;;;;;222.25;73.80;;;;;;;;;;6289132;28;20480;-62
2024/01/06 10:20:29;;;;;;;227.45;72.40;;;;;;;;;;6286310;28;20064;-62
2024/01/06 10:23:31;;;;;;;224.73;74.82;;;;;;;;;;6288136;28;20399;-62
2024/01/06 10:26:32;;;;;;;262.38;81.70;;;;;;;;;;6289523;28;20048;-62
2024/01/06 10:29:33;;;;;;;258.23;84.82;;;;;;;;;;6287544;28;20102;-62
2024/01/06 10:32:36;;;;;;;260.83;83.78;;;;;;;;;;6287502;28;20058;-62
2024/01/06 10:35:40;;;;;;;238.43;78.45;;;;;;;;;;6289012;28;20048;-62
2024/01/06 10:38:41;;;;;;;246.32;78.75;;;;;;;;;;6287632;28;20074;-62
2024/01/06 10:41:44;;;;;;;246.73;82.85;;;;;;;;;;6288345;28;20450;-62
2024/01/06 10:44:47;;;;;;;264.23;89.15;;;;;;;;;;6291310;28;20074;-62
2024/01/06 10:47:48;;;;;;;263.35;86.18;;;;;;;;;;6287203;28;20122;-61
2024/01/06 10:50:50;;;;;;;265.80;90.53;;;;;;;;;;6286174;28;20110;-62
2024/01/06 10:53:51;;;;;;;275.60;91.68;;;;;;;;;;6287056;28;20056;-62
2024/01/06 10:56:54;;;;;;;286.88;92.97;;;;;;;;;;6287895;28;20483;-62
2024/01/06 10:59:57;;;;;;;;;;;;;;;;;;6287200;28;20041;-62
2024/01/06 11:02:59;;;;;;;273.75;91.93;;;;;;;;;;6287105;28;21716;-62
2024/01/06 11:05:59;;;;;;;284.50;91.82;;;;;;;;;;6287934;28;20052;-62
2024/01/06 11:09:27;;;;;;;300.52;97.15;;;;;;;;;;6286886;28;20559;-62
2024/01/06 11:12:27;;;;;;;263.60;86.30;;;;;;;;;;6286337;28;20064;-62
2024/01/06 11:15:40;;;;;;;256.60;85.07;;;;;;;;;;6288396;28;20131;-62
2024/01/06 11:18:42;;;;;;;257.27;80.53;;;;;;;;;;6276518;28;20102;-62
2024/01/06 11:21:43;;;;;;;;;;;;;;;;;;6287818;28;20044;-62
2024/01/06 11:24:50;;;;;;;243.55;77.13;;;;;;;;;;6288556;28;19962;-62
2024/01/06 11:27:56;;;;;;;253.48;82.35;;;;;;;;;;6284809;28;20040;-62
2024/01/06 11:31:18;;;;;;;249.20;81.57;;;;;;;;;;6286746;28;20458;-62
2024/01/06 11:34:20;;;;;;;253.88;83.22;;;;;;;;;;6286643;28;20059;-62
2024/01/06 11:37:45;;;;;;;244.32;80.93;;;;;;;;;;6287359;28;20117;-62
2024/01/06 11:40:46;;;;;;;275.20;82.68;;;;;;;;;;6280307;28;20056;-62
2024/01/06 11:43:47;;;;;;;266.25;84.03;;;;;;;;;;6273298;28;20581;-61
2024/01/06 11:46:49;;;;;;;251.98;82.60;;;;;;;;;;6260834;28;20045;-62
2024/01/06 11:49:53;;;;;;;;;;;;;;;;;;6265506;28;20492;-62
2024/01/06 11:52:55;;;;;;;196.63;63.33;;;;;;;;;;6265614;28;19931;-62
2024/01/06 11:55:55;;;;;;;213.52;67.22;;;;;;;;;;6262945;28;20049;-61
2024/01/06 11:58:56;;;;;;;212.75;65.75;;;;;;;;;;6269745;28;20048;-62
2024/01/06 12:01:57;;;;;;;205.95;66.60;;;;;;;;;;6270806;28;20041;-61
2024/01/06 12:04:58;;;;;;;202.13;67.85;;;;;;;;;;6268310;28;20411;-62
2024/01/06 12:08:00;;;;;;;196.50;63.95;;;;;;;;;;6267354;28;20063;-62
2024/01/06 12:11:03;;;;;;;189.13;63.67;;;;;;;;;;6268816;28;20055;-62
2024/01/06 12:14:03;;;;;;;183.55;57.08;;;;;;;;;;6268048;28;20060;-62
2024/01/06 12:17:04;;;;;;;185.45;56.33;;;;;;;;;;6266105;28;20045;-62
2024/01/06 12:20:08;;;;;;;181.90;59.15;;;;;;;;;;6266755;28;20055;-62
2024/01/06 12:23:09;;;;;;;187.13;61.08;;;;;;;;;;6270681;28;20420;-62
2024/01/06 12:26:10;;;;;;;199.77;65.15;;;;;;;;;;6265601;28;20049;-61
2024/01/06 12:29:11;;;;;;;185.40;58.92;;;;;;;;;;6269808;28;20389;-61
2024/01/06 12:32:13;;;;;;;161.70;55.92;;;;;;;;;;6270982;28;20061;-61
2024/01/06 12:35:14;;;;;;;164.60;53.75;;;;;;;;;;6267645;28;20052;-62
2024/01/06 12:38:15;;;;;;;155.85;50.20;;;;;;;;;;6268726;28;20053;-61
2024/01/06 12:41:16;;;;;;;156.75;52.22;;;;;;;;;;6270585;28;20462;-62
2024/01/06 12:44:16;;;;;;;166.45;51.72;;;;;;;;;;6268089;28;20056;-62
2024/01/06 12:47:17;;;;;;;175.10;60.03;;;;;;;;;;6268686;28;20049;-62
2024/01/06 12:50:18;;;;;;;198.27;61.28;;;;;;;;;;6271863;28;20569;-62
2024/01/06 12:53:19;;;;;;;222.05;69.00;;;;;;;;;;6270208;28;20101;-63
2024/01/06 12:56:20;;;;;;;197.18;63.95;;;;;;;;;;6269446;28;20408;-62
2024/01/06 12:59:20;;;;;;;190.48;62.88;;;;;;;;;;6270689;28;20503;-61
2024/01/06 13:02:21;;;;;;;185.68;60.05;;;;;;;;;;6271901;28;20110;-62
2024/01/06 13:05:22;;;;;;;182.82;57.75;;;;;;;;;;6267710;28;20127;-62
2024/01/06 13:08:23;;;;;;;165.25;58.13;;;;;;;;;;6269304;28;20056;-61
2024/01/06 13:11:24;;;;;;;165.40;55.72;;;;;;;;;;6272986;28;20186;-62
2024/01/06 13:14:25;;;;;;;146.48;50.35;;;;;;;;;;6272683;28;20056;-62
2024/01/06 13:17:26;;;;;;;144.80;50.75;;;;;;;;;;6270157;28;21400;-62
2024/01/06 13:20:26;;;;;;;156.60;49.80;;;;;;;;;;6273976;28;20150;-62
2024/01/06 13:23:27;;;;;;;136.75;47.33;;;;;;;;;;6269405;28;20124;-61
2024/01/06 13:26:28;;;;;;;131.93;44.58;;;;;;;;;;6266453;28;20420;-62
2024/01/06 13:29:29;;;;;;;138.65;43.72;;;;;;;;;;6272698;28;20052;-62
2024/01/06 13:32:30;;;;;;;140.32;47.55;;;;;;;;;;6274458;28;20056;-62
2024/01/06 13:35:31;;;;;;;131.35;45.45;;;;;;;;;;6270420;28;20049;-62
2024/01/06 13:38:31;;;;;;;135.38;44.40;;;;;;;;;;6268757;28;20049;-62
2024/01/06 13:41:32;;;;;;;133.93;45.65;;;;;;;;;;6267079;28;20048;-64
2024/01/06 13:44:33;;;;;;;125.43;41.38;;;;;;;;;;6264357;28;20049;-62
2024/01/06 13:47:34;;;;;;;126.45;41.05;;;;;;;;;;6270525;28;20044;-63
2024/01/06 13:50:35;;;;;;;128.35;40.13;;;;;;;;;;6268987;28;20068;-63
2024/01/06 13:53:36;;;;;;;130.90;42.05;;;;;;;;;;6273134;28;20064;-63
2024/01/06 13:56:36;;;;;;;124.80;42.05;;;;;;;;;;6266273;28;20740;-63
2024/01/06 13:59:42;;;;;;;111.65;38.22;;;;;;;;;;6264841;28;20538;-63
2024/01/06 14:02:42;;;;;;;114.07;38.33;;;;;;;;;;6272391;28;20081;-61
2024/01/06 14:05:43;;;;;;;116.80;42.85;;;;;;;;;;6266939;28;20900;-63
2024/01/06 14:08:44;;;;;;;123.18;42.05;;;;;;;;;;6268322;28;20582;-62
2024/01/06 14:11:45;;;;;;;106.35;35.83;;;;;;;;;;6265577;28;20351;-61
2024/01/06 14:14:46;;;;;;;110.00;37.88;;;;;;;;;;6254663;28;20057;-61
2024/01/06 14:17:50;;;;;;;110.18;38.50;;;;;;;;;;6263571;28;20056;-62
2024/01/06 14:20:51;;;;;;;106.00;37.67;;;;;;;;;;6268008;28;20194;-62
2024/01/06 14:23:52;;;;;;;102.38;38.25;;;;;;;;;;6268258;28;20052;-63
2024/01/06 14:26:55;;;;;;;103.85;37.10;;;;;;;;;;6262989;28;20048;-62
2024/01/06 14:29:57;;;;;;;96.38;35.88;;;;;;;;;;6268096;28;20044;-63
2024/01/06 14:32:57;;;;;;;103.07;36.22;;;;;;;;;;6268081;28;20057;-63
2024/01/06 14:35:58;;;;;;;99.32;35.80;;;;;;;;;;6267453;28;20498;-63
2024/01/06 14:39:00;;;;;;;95.05;36.97;;;;;;;;;;6270675;28;20118;-64
2024/01/06 14:42:01;;;;;;;94.60;36.70;;;;;;;;;;6269988;28;20601;-63
2024/01/06 14:45:02;;;;;;;102.75;37.70;;;;;;;;;;6266193;28;20048;-64
2024/01/06 14:48:04;;;;;;;98.70;37.45;;;;;;;;;;6267273;28;20045;-63
2024/01/06 14:51:04;;;;;;;102.07;37.38;;;;;;;;;;6267347;28;20044;-63
2024/01/06 14:54:08;;;;;;;105.65;38.70;;;;;;;;;;6264519;28;20059;-63
2024/01/06 14:57:08;;;;;;;109.65;38.40;;;;;;;;;;6262932;28;20195;-62
2024/01/06 15:00:10;;;;;;;108.53;38.72;;;;;;;;;;6268566;28;20044;-63
2024/01/06 15:03:11;;;;;;;95.93;35.87;;;;;;;;;;6269222;28;20053;-62
2024/01/06 15:06:12;;;;;;;101.55;40.22;;;;;;;;;;6264065;28;20101;-66
2024/01/06 15:09:13;;;;;;;98.40;37.97;;;;;;;;;;6269139;28;20059;-65
2024/01/06 15:12:14;;;;;;;94.70;36.20;;;;;;;;;;6272530;28;20044;-62
2024/01/06 15:15:15;;;;;;;94.13;36.78;;;;;;;;;;6265865;28;20048;-62
2024/01/06 15:18:20;;;;;;;98.32;35.08;;;;;;;;;;6267723;28;20514;-63
2024/01/06 15:21:23;;;;;;;91.65;35.55;;;;;;;;;;6266911;28;20053;-63
2024/01/06 15:24:24;;;;;;;90.25;34.28;;;;;;;;;;6273784;28;20101;-63
2024/01/06 15:27:24;;;;;;;87.95;34.70;;;;;;;;;;6266152;28;20045;-63
2024/01/06 15:30:25;;;;;;;80.10;31.48;;;;;;;;;;6269626;28;20052;-64
2024/01/06 15:33:26;;;;;;;86.13;32.00;;;;;;;;;;6269477;28;20531;-64
2024/01/06 15:36:27;;;;;;;83.20;32.38;;;;;;;;;;6270456;28;20049;-64
2024/01/06 15:39:27;;;;;;;77.63;30.50;;;;;;;;;;6271368;28;20066;-64
2024/01/06 15:42:29;;;;;;;77.82;28.88;;;;;;;;;;6278610;28;20481;-63
2024/01/06 15:45:29;;;;;;;78.32;30.65;;;;;;;;;;6269047;28;20747;-64
2024/01/06 15:48:31;;;;;;;78.57;30.75;;;;;;;;;;6273460;28;20040;-63
2024/01/06 15:51:32;;;;;;;77.28;30.27;;;;;;;;;;6277208;28;20037;-63
2024/01/06 15:54:33;;;;;;;70.78;28.92;;;;;;;;;;6275949;28;20802;-62
2024/01/06 15:57:34;;;;;;;82.05;30.10;;;;;;;;;;6271703;28;20053;-63
2024/01/06 16:00:35;;;;;;;76.20;29.63;;;;;;;;;;6275629;28;20495;-63
2024/01/06 16:03:35;;;;;;;71.05;28.58;;;;;;;;;;6278128;28;20061;-64
2024/01/06 16:06:36;;;;;;;59.33;24.30;;;;;;;;;;6265176;28;20093;-63
2024/01/06 16:09:37;;;;;;;57.40;24.20;;;;;;;;;;6272196;28;20047;-63
2024/01/06 16:12:41;;;;;;;55.53;22.15;;;;;;;;;;6270437;28;20041;-63
2024/01/06 16:15:42;;;;;;;56.10;22.92;;;;;;;;;;6266556;28;20163;-63
2024/01/06 16:18:44;;;;;;;60.60;24.20;;;;;;;;;;6275245;28;20755;-63
2024/01/06 16:21:45;;;;;;;65.45;26.23;;;;;;;;;;6268730;28;20383;-63
2024/01/06 16:24:46;;;;;;;66.77;26.30;;;;;;;;;;6270904;28;20048;-63
2024/01/06 16:27:47;;;;;;;79.82;29.45;;;;;;;;;;6265494;28;20036;-63
2024/01/06 16:30:48;;;;;;;72.22;29.40;;;;;;;;;;6268216;28;20460;-64
2024/01/06 16:33:48;;;;;;;84.32;32.78;;;;;;;;;;6269468;28;20056;-63
2024/01/06 16:36:49;;;;;;;82.80;32.03;;;;;;;;;;6266586;28;20546;-63
2024/01/06 16:39:51;;;;;;;69.93;28.17;;;;;;;;;;6269426;28;20052;-63
2024/01/06 16:42:52;;;;;;;65.15;27.45;;;;;;;;;;6271459;28;20099;-63
2024/01/06 16:45:52;;;;;;;72.50;29.15;;;;;;;;;;6265276;28;20053;-62
2024/01/06 16:48:53;;;;;;;78.45;31.15;;;;;;;;;;6273027;28;20058;-63
2024/01/06 16:51:54;;;;;;;75.47;32.13;;;;;;;;;;6268045;28;20052;-62
2024/01/06 16:54:55;;;;;;;66.63;27.83;;;;;;;;;;6267540;28;20228;-62
2024/01/06 16:57:59;;;;;;;61.55;25.63;;;;;;;;;;6267176;28;20044;-65
2024/01/06 17:01:00;;;;;;;61.30;25.73;;;;;;;;;;6268351;28;20125;-62
2024/01/06 17:04:01;;;;;;;67.15;28.98;;;;;;;;;;6268906;28;20056;-62
2024/01/06 17:07:04;;;;;;;65.63;26.65;;;;;;;;;;6266230;28;20500;-62
2024/01/06 17:10:05;;;;;;;60.15;25.55;;;;;;;;;;6270726;28;20044;-62
2024/01/06 17:13:07;;;;;;;57.50;25.47;;;;;;;;;;6274510;28;20053;-63
2024/01/06 17:16:08;;;;;;;65.18;27.38;;;;;;;;;;6266245;28;20057;-63
2024/01/06 17:19:09;;;;;;;66.60;27.67;;;;;;;;;;6265876;28;21376;-62
2024/01/06 17:22:10;;;;;;;63.75;24.95;;;;;;;;;;6268816;28;20049;-62
2024/01/06 17:25:12;;;;;;;66.20;27.20;;;;;;;;;;6266948;28;20053;-62